• Join FlightAware (Why Join?)
  • Login
  • US Flag 
04:28PM EDT


 

Airport Tracker/Info


-or-


 

Live Flight TrackerFlight Track Log ✈ ASQ2532 ✈ 12-May-2013 ✈ KDFW - KSHV

Flight Track Log - Related Links

Times and Time Zones

All times are in EDT time to prevent confusion due to time zone crossing. See the ASQ2532 flight status page for this flight to view local times or setup timezone preferences in your user account.

Time Position Orientation Groundspeed Altitude Reporting Facility
EDT Latitude Longitude Course Direction KTS MPH feet Rate Location/Type
11:16AM 32.9167 -97.0333 16° North 162 186 1,600  Level Dallas / Fort Worth TRACON
11:17AM 32.9667 -97.0167 16° North 235 270 4,300 2,880 Climbing Dallas / Fort Worth TRACON
11:18AM 33.0167 -96.9667 40° Northeast 268 308 7,700 1,860 Climbing Dallas / Fort Worth TRACON
11:21AM 32.9672 -96.7300 104° East 317 365 10,800 1,680 Climbing Fort Worth Center
11:22AM 32.9417 -96.6286 107° East 345 397 13,600 2,460 Climbing Fort Worth Center
11:23AM 32.9094 -96.5003 107° East 360 414 15,800 1,800 Climbing Fort Worth Center
11:24AM 32.8814 -96.3942 107° East 373 429 17,200 1,380 Climbing Fort Worth Center
11:25AM 32.8656 -96.2511 97° East 389 448 18,600 900 Climbing Fort Worth Center
11:26AM 32.8539 -96.1275 96° East 401 461 19,000 180 Climbing Fort Worth Center
11:27AM 32.8292 -95.9697 101° East 432 497 19,000  Level Fort Worth Center
11:28AM 32.8069 -95.8364 101° East 448 516 19,000  Level Fort Worth Center
11:29AM 32.7775 -95.6789 102° East 448 516 19,000  Level Fort Worth Center
11:30AM 32.7483 -95.5289 103° East 454 522 19,000  Level Fort Worth Center
11:31AM 32.7272 -95.3861 100° East 448 516 19,000  Level Fort Worth Center
11:32AM 32.6997 -95.2411 103° East 448 516 19,000  Level Fort Worth Center
11:33AM 32.6744 -95.0958 102° East 448 516 19,000  Level Fort Worth Center
11:34AM 32.6464 -94.9511 103° East 448 516 19,000  Level Fort Worth Center
11:35AM 32.6228 -94.8039 101° East 448 516 19,000 -60 Level Fort Worth Center
11:36AM 32.5989 -94.6614 101° East 448 516 18,900 -1,260 Descending Fort Worth Center
11:37AM 32.5753 -94.5414 103° East 417 480 16,600 -2,820 Descending Fort Worth Center
11:38AM 32.5536 -94.4189 102° East 404 465 13,800 -2,880 Descending Fort Worth Center
11:39AM 32.5214 -94.3017 108° East 373 429 11,100 -1,920 Descending Fort Worth Center
11:40AM 32.4939 -94.2017 108° East 303 349 10,000 -1,560 Descending Fort Worth Center
11:41AM 32.4664 -94.1067 109° East 293 337 8,000 -2,040 Descending Fort Worth Center
11:42AM 32.4433 -94.0189 107° East 281 323 6,000 -2,040 Descending Fort Worth Center
11:43AM 32.4200 -93.9361 108° East 270 311 4,000 -1,920 Descending Fort Worth Center
11:44AM 32.3722 -93.8664 129° Southeast 250 288 2,200 -960 Descending Fort Worth Center
11:45AM 32.3292 -93.8214 139° Southeast 193 222 2,100 -120 Descending Fort Worth Center
11:46AM 32.3592 -93.7786 50° Northeast 137 158 2,000 -420 Descending Fort Worth Center
11:47AM 32.3972 -93.7917 344° North 146 168 1,300 -780 Descending Fort Worth Center
11:48AM 32.4292 -93.8125 331° Northwest 123 142 500 -480 Descending Fort Worth Center
11:49AM 32.4589 -93.8336 329° Northwest 123 142 400 9,240 Descending Fort Worth Center
11:50AM 32.4867 -93.8572 324° Northwest 123 142 19,000 9,300 Climbing Fort Worth Center
11:51AM 32.5125 -93.8808 322° Northwest 123 142 19,000  Level Fort Worth Center